createdAt,value
2023-02-22T00:01:51.526Z,0.20
2023-02-22T00:04:21.469Z,0.70
2023-02-22T00:06:50.090Z,0.22
2023-02-22T00:09:20.872Z,0.93
2023-02-22T00:11:48.862Z,0.80
2023-02-22T00:14:20.497Z,0.22
2023-02-22T00:16:48.288Z,0.45
2023-02-22T00:19:15.729Z,0.75
2023-02-22T00:21:44.938Z,0.20
2023-02-22T00:24:23.470Z,0.13
2023-02-22T00:26:57.964Z,0.45
2023-02-22T00:29:26.060Z,0.20
2023-02-22T00:31:54.329Z,0.50
2023-02-22T00:34:24.343Z,0.30
2023-02-22T00:36:51.904Z,1.05
2023-02-22T00:39:19.393Z,0.13
2023-02-22T00:41:46.914Z,0.45
2023-02-22T00:44:14.904Z,0.30
2023-02-22T00:46:42.276Z,0.47
2023-02-22T00:49:09.648Z,0.70
2023-02-22T00:51:37.086Z,0.32
2023-02-22T00:54:05.546Z,0.00
2023-02-22T00:56:34.506Z,1.33
2023-02-22T01:01:29.004Z,0.00
2023-02-22T01:03:56.418Z,0.20
2023-02-22T01:06:23.985Z,0.03
2023-02-22T01:08:51.432Z,0.20
2023-02-22T01:11:19.314Z,0.10
2023-02-22T01:13:46.702Z,0.40
2023-02-22T01:16:14.251Z,0.00
2023-02-22T01:18:41.785Z,0.45
2023-02-22T01:21:09.134Z,0.00
2023-02-22T01:23:36.560Z,0.13
2023-02-22T01:26:05.965Z,0.20
2023-02-22T01:28:33.913Z,0.00
2023-02-22T01:31:01.743Z,0.40
2023-02-22T01:33:29.283Z,0.00
2023-02-22T01:35:56.786Z,0.47
2023-02-22T01:38:24.468Z,0.20
2023-02-22T01:40:55.127Z,0.00
2023-02-22T01:43:22.614Z,0.00
2023-02-22T01:45:53.268Z,0.20
2023-02-22T01:48:23.362Z,0.30
2023-02-22T01:50:56.501Z,0.00
2023-02-22T01:53:27.979Z,0.40
2023-02-22T01:55:56.071Z,0.32
2023-02-22T01:58:26.557Z,0.10
2023-02-22T02:00:54.409Z,0.00
2023-02-22T02:03:27.803Z,0.40
2023-02-22T02:05:57.393Z,0.40
2023-02-22T02:08:30.356Z,0.68
2023-02-22T02:10:58.317Z,0.30
2023-02-22T02:13:27.319Z,0.75
2023-02-22T02:18:23.554Z,0.00
2023-02-22T02:20:53.787Z,0.07
2023-02-22T02:23:44.572Z,0.00
2023-02-22T02:26:31.175Z,0.00
2023-02-22T02:29:17.703Z,0.00
2023-02-22T02:31:54.140Z,0.28
2023-02-22T02:34:31.060Z,0.05
2023-02-22T02:37:12.943Z,0.00
2023-02-22T02:39:47.065Z,0.17
2023-02-22T02:42:17.574Z,0.10
2023-02-22T02:44:50.518Z,0.00
2023-02-22T02:47:40.729Z,0.00
2023-02-22T02:50:14.847Z,0.10
2023-02-22T02:52:43.249Z,0.47
2023-02-22T02:55:11.549Z,0.28
2023-02-22T02:57:39.252Z,1.02
2023-02-22T03:00:22.767Z,0.77
2023-02-22T03:03:02.859Z,0.43
2023-02-22T03:05:33.054Z,1.35
2023-02-22T03:08:07.898Z,0.57
2023-02-22T03:10:50.644Z,0.73
2023-02-22T03:13:28.362Z,0.45
2023-02-22T03:16:02.988Z,0.45
2023-02-22T03:18:33.634Z,0.00
2023-02-22T03:21:08.214Z,1.27
2023-02-22T03:23:44.856Z,0.30
2023-02-22T03:26:15.602Z,0.43
2023-02-22T03:28:45.213Z,0.10
2023-02-22T03:31:17.987Z,0.00
2023-02-22T03:33:54.548Z,0.98
2023-02-22T03:36:30.597Z,2.40
2023-02-22T03:39:00.423Z,0.00
2023-02-22T03:41:28.079Z,0.00
2023-02-22T03:44:05.741Z,0.75
2023-02-22T03:46:33.609Z,0.40
2023-02-22T03:49:03.954Z,0.05
2023-02-22T03:51:31.470Z,0.00
2023-02-22T03:53:58.961Z,0.00
2023-02-22T03:56:36.004Z,0.00
2023-02-22T03:59:09.316Z,0.77
2023-02-22T04:01:39.289Z,0.00
2023-02-22T04:04:06.710Z,0.00
2023-02-22T04:06:34.218Z,0.10
2023-02-22T04:09:01.723Z,0.63
2023-02-22T04:11:29.190Z,0.10
2023-02-22T04:13:57.350Z,0.00
2023-02-22T04:16:25.892Z,0.40
2023-02-22T04:18:55.952Z,0.00
2023-02-22T04:21:23.464Z,0.20
2023-02-22T04:23:51.166Z,0.05
2023-02-22T04:26:18.644Z,0.22
2023-02-22T04:28:46.043Z,0.00
2023-02-22T04:31:13.491Z,0.20
2023-02-22T04:33:40.954Z,0.10
2023-02-22T04:36:08.662Z,0.00
2023-02-22T04:38:36.141Z,1.40
2023-02-22T04:41:03.618Z,0.20
2023-02-22T04:43:38.210Z,0.10
2023-02-22T04:46:05.968Z,0.17
2023-02-22T04:48:33.401Z,0.00
2023-02-22T04:51:00.849Z,0.40
2023-02-22T04:53:28.283Z,0.47
2023-02-22T04:55:55.705Z,0.25
2023-02-22T04:58:25.812Z,0.52
2023-02-22T05:00:53.294Z,0.15
2023-02-22T05:03:20.696Z,0.00
2023-02-22T05:05:48.163Z,0.10
2023-02-22T05:08:15.515Z,0.00
2023-02-22T05:10:42.861Z,0.10
2023-02-22T05:13:10.373Z,0.75
2023-02-22T05:15:37.802Z,0.20
2023-02-22T05:18:05.253Z,0.00
2023-02-22T05:20:34.192Z,0.00
2023-02-22T05:23:02.503Z,0.00
2023-02-22T05:25:29.983Z,0.10
2023-02-22T05:28:11.023Z,0.63
2023-02-22T05:30:41.350Z,0.00
2023-02-22T05:33:09.347Z,0.35
2023-02-22T05:35:39.780Z,0.60
2023-02-22T05:38:07.434Z,0.00
2023-02-22T05:40:35.132Z,0.05
2023-02-22T05:43:03.101Z,0.10
2023-02-22T05:45:30.595Z,0.10
2023-02-22T05:47:58.040Z,0.35
2023-02-22T05:50:28.241Z,0.00
2023-02-22T05:52:55.909Z,0.10
2023-02-22T05:55:24.518Z,0.03
2023-02-22T05:57:52.571Z,0.40
2023-02-22T06:00:23.448Z,0.47
2023-02-22T06:03:01.320Z,0.85
2023-02-22T06:05:29.103Z,0.52
2023-02-22T06:07:57.147Z,0.30
2023-02-22T06:10:24.923Z,0.00
2023-02-22T06:12:53.970Z,0.00
2023-02-22T06:15:24.508Z,0.10
2023-02-22T06:17:54.682Z,0.25
2023-02-22T06:20:24.530Z,0.38
2023-02-22T06:22:52.648Z,0.00
2023-02-22T06:25:22.297Z,0.00
2023-02-22T06:27:49.691Z,0.43
2023-02-22T06:30:18.818Z,0.47
2023-02-22T06:32:46.302Z,0.03
2023-02-22T06:35:14.118Z,0.00
2023-02-22T06:37:41.594Z,0.10
2023-02-22T06:40:11.116Z,0.30
2023-02-22T06:42:39.187Z,0.10
2023-02-22T06:45:06.906Z,0.17
2023-02-22T06:47:34.308Z,0.10
2023-02-22T06:50:01.664Z,0.00
2023-02-22T06:52:29.068Z,0.08
2023-02-22T06:54:56.522Z,0.10
2023-02-22T06:57:24.005Z,0.00
2023-02-22T06:59:51.450Z,0.08
2023-02-22T07:02:18.828Z,0.10
2023-02-22T07:04:46.431Z,0.00
2023-02-22T07:07:13.826Z,0.40
2023-02-22T07:09:45.387Z,0.88
2023-02-22T07:12:13.024Z,0.90
2023-02-22T07:14:40.388Z,4.22
2023-02-22T07:17:07.827Z,8.95
2023-02-22T07:19:35.488Z,5.90
2023-02-22T07:22:02.843Z,5.00
2023-02-22T07:24:30.330Z,2.92
2023-02-22T07:26:57.714Z,1.13
2023-02-22T07:29:25.070Z,3.72
2023-02-22T07:31:52.542Z,3.67
2023-02-22T07:34:19.949Z,1.90
2023-02-22T07:36:47.383Z,3.03
2023-02-22T07:39:14.830Z,5.20
2023-02-22T07:41:42.236Z,1.42
2023-02-22T07:44:09.589Z,2.50
2023-02-22T07:46:36.973Z,0.68
2023-02-22T07:49:04.358Z,0.45
2023-02-22T07:51:31.716Z,1.40
2023-02-22T07:53:59.538Z,1.27
2023-02-22T07:56:26.867Z,0.80
2023-02-22T07:58:54.340Z,2.33
2023-02-22T08:01:21.709Z,1.45
2023-02-22T08:03:49.246Z,1.20
2023-02-22T08:06:16.714Z,1.52
2023-02-22T08:08:44.285Z,1.15
2023-02-22T08:11:11.666Z,0.85
2023-02-22T08:13:39.728Z,1.75
2023-02-22T08:16:07.166Z,1.05
2023-02-22T08:18:34.547Z,1.23
2023-02-22T08:21:01.905Z,1.13
2023-02-22T08:23:29.197Z,1.00
2023-02-22T08:25:56.892Z,1.60
2023-02-22T08:28:25.626Z,1.90
2023-02-22T08:30:53.142Z,0.88
2023-02-22T08:33:21.001Z,1.02
2023-02-22T08:35:49.865Z,1.13
2023-02-22T08:38:20.108Z,1.58
2023-02-22T08:40:48.577Z,1.15
2023-02-22T08:43:16.015Z,1.25
2023-02-22T08:45:44.080Z,2.95
2023-02-22T08:48:11.564Z,1.50
2023-02-22T08:50:38.584Z,2.75
2023-02-22T08:53:06.154Z,1.63
2023-02-22T08:55:37.288Z,3.08
2023-02-22T08:58:06.065Z,1.83
2023-02-22T09:00:34.133Z,2.60
2023-02-22T09:03:02.667Z,4.43
2023-02-22T09:05:31.544Z,3.17
2023-02-22T09:08:00.879Z,2.90
2023-02-22T09:10:30.550Z,1.15
2023-02-22T09:12:58.381Z,2.20
2023-02-22T09:15:26.128Z,1.98
2023-02-22T09:17:53.656Z,2.58
2023-02-22T09:20:23.011Z,2.60
2023-02-22T09:22:50.673Z,2.42
2023-02-22T09:25:20.015Z,2.67
2023-02-22T09:27:53.866Z,2.17
2023-02-22T09:30:25.719Z,1.40
2023-02-22T09:32:54.773Z,1.95
2023-02-22T09:38:00.209Z,1.40
2023-02-22T09:40:30.505Z,1.55
2023-02-22T09:43:16.938Z,2.28
2023-02-22T09:46:05.366Z,1.40
2023-02-22T09:48:36.665Z,1.92
2023-02-22T09:51:11.903Z,2.70
2023-02-22T09:53:44.508Z,1.42
2023-02-22T09:56:14.752Z,1.83
2023-02-22T09:58:54.599Z,1.27
2023-02-22T10:01:39.256Z,0.68
2023-02-22T10:04:20.265Z,2.00
2023-02-22T10:07:12.274Z,1.60
2023-02-22T10:09:43.202Z,1.92
2023-02-22T10:12:12.862Z,1.67
2023-02-22T10:15:07.408Z,1.40
2023-02-22T10:18:05.181Z,1.42
2023-02-22T10:20:56.596Z,1.70
2023-02-22T10:23:36.737Z,2.28
2023-02-22T10:26:15.543Z,2.22
2023-02-22T10:31:23.413Z,2.42
2023-02-22T10:34:05.868Z,1.08
2023-02-22T10:36:34.574Z,1.92
2023-02-22T10:39:14.084Z,2.00
2023-02-22T10:41:51.191Z,2.00
2023-02-22T10:44:18.478Z,2.78
2023-02-22T10:46:47.232Z,2.05
2023-02-22T10:49:22.487Z,1.35
2023-02-22T10:52:01.576Z,1.75
2023-02-22T10:54:40.401Z,2.10
2023-02-22T10:57:08.081Z,1.00
2023-02-22T10:59:40.241Z,1.48
2023-02-22T11:02:19.536Z,1.27
2023-02-22T11:04:52.794Z,1.80
2023-02-22T11:07:21.762Z,1.00
2023-02-22T11:12:37.998Z,1.25
2023-02-22T11:15:16.870Z,2.15
2023-02-22T11:17:48.079Z,0.63
2023-02-22T11:20:27.279Z,1.08
2023-02-22T11:22:56.875Z,1.02
2023-02-22T11:25:29.441Z,1.63
2023-02-22T11:28:15.013Z,1.63
2023-02-22T11:30:44.639Z,2.10
2023-02-22T11:33:23.501Z,1.13
2023-02-22T11:38:23.881Z,1.58
2023-02-22T11:41:30.216Z,2.25
2023-02-22T11:44:23.794Z,0.80
2023-02-22T11:46:51.666Z,1.85
2023-02-22T11:49:20.150Z,1.00
2023-02-22T11:51:53.272Z,0.68
2023-02-22T11:54:33.411Z,1.02
2023-02-22T11:57:22.294Z,1.02
2023-02-22T12:00:16.708Z,1.55
2023-02-22T12:03:02.652Z,1.30
2023-02-22T12:05:59.780Z,0.80
2023-02-22T12:08:45.174Z,0.85
2023-02-22T12:11:23.975Z,1.85
2023-02-22T12:16:40.259Z,1.80
2023-02-22T12:19:15.844Z,0.80
2023-02-22T12:21:46.887Z,1.90
2023-02-22T12:24:24.783Z,1.83
2023-02-22T12:26:59.814Z,1.08
2023-02-22T12:29:41.651Z,1.15
2023-02-22T12:32:33.438Z,1.20
2023-02-22T12:35:19.284Z,1.25
2023-02-22T12:37:59.738Z,1.67
2023-02-22T12:40:45.239Z,1.17
2023-02-22T12:43:20.816Z,1.13
2023-02-22T12:46:21.551Z,1.52
2023-02-22T12:48:57.441Z,1.17
2023-02-22T12:51:43.003Z,1.20
2023-02-22T12:54:42.092Z,1.50
2023-02-22T12:57:17.091Z,2.05
2023-02-22T13:00:03.714Z,1.40
2023-02-22T13:02:44.861Z,1.02
2023-02-22T13:05:18.040Z,1.67
2023-02-22T13:08:02.655Z,1.20
2023-02-22T13:11:01.704Z,1.73
2023-02-22T13:13:42.072Z,1.17
2023-02-22T13:16:30.801Z,1.55
2023-02-22T13:19:27.576Z,1.75
2023-02-22T13:22:05.775Z,1.23
2023-02-22T13:24:58.613Z,1.38
2023-02-22T13:27:34.456Z,1.50
2023-02-22T13:30:02.602Z,1.15
2023-02-22T13:32:54.448Z,1.00
2023-02-22T13:35:50.220Z,0.55
2023-02-22T13:38:58.651Z,0.77
2023-02-22T13:41:58.052Z,2.10
2023-02-22T13:45:00.023Z,0.80
2023-02-22T13:47:51.149Z,1.17
2023-02-22T13:50:42.999Z,0.82
2023-02-22T13:53:17.199Z,1.42
2023-02-22T13:55:51.790Z,1.42
2023-02-22T13:58:18.962Z,1.63
2023-02-22T14:00:57.361Z,0.70
2023-02-22T14:03:40.719Z,1.88
2023-02-22T14:06:10.785Z,0.95
2023-02-22T14:08:37.755Z,0.85
2023-02-22T14:11:06.706Z,1.30
2023-02-22T14:16:29.970Z,1.30
2023-02-22T14:19:06.701Z,1.13
2023-02-22T14:21:35.260Z,1.35
2023-02-22T14:24:14.335Z,2.42
2023-02-22T14:26:53.628Z,1.30
2023-02-22T14:29:21.851Z,1.02
2023-02-22T14:31:51.617Z,1.73
2023-02-22T14:34:18.617Z,0.98
2023-02-22T14:36:58.048Z,1.10
2023-02-22T14:39:39.728Z,1.02
2023-02-22T14:42:24.210Z,1.33
2023-02-22T14:45:05.748Z,1.65
2023-02-22T14:47:40.037Z,1.45
2023-02-22T14:50:30.234Z,0.65
2023-02-22T14:53:20.754Z,1.00
2023-02-22T14:55:53.427Z,0.85
2023-02-22T14:58:21.653Z,1.25
2023-02-22T15:00:53.091Z,2.15
2023-02-22T15:03:38.739Z,1.77
2023-02-22T15:06:18.348Z,2.53
2023-02-22T15:08:49.734Z,1.80
2023-02-22T15:11:26.495Z,1.90
2023-02-22T15:13:54.969Z,1.58
2023-02-22T15:16:23.696Z,1.45
2023-02-22T15:18:54.910Z,1.25
2023-02-22T15:21:26.215Z,1.85
2023-02-22T15:23:56.530Z,1.55
2023-02-22T15:26:37.618Z,1.63
2023-02-22T15:29:15.637Z,2.92
2023-02-22T15:31:48.228Z,4.80
2023-02-22T15:34:19.304Z,4.78
2023-02-22T15:36:50.947Z,2.58
2023-02-22T15:39:29.931Z,3.58
2023-02-22T15:42:21.021Z,3.85
2023-02-22T15:44:49.821Z,3.70
2023-02-22T15:47:21.147Z,5.25
2023-02-22T15:50:25.963Z,4.13
2023-02-22T15:53:03.956Z,3.70
2023-02-22T15:55:34.048Z,2.63
2023-02-22T15:58:11.670Z,1.35
2023-02-22T16:00:41.795Z,1.42
2023-02-22T16:03:12.369Z,1.80
2023-02-22T16:05:39.883Z,1.27
2023-02-22T16:08:18.354Z,0.80
2023-02-22T16:10:58.110Z,0.98
2023-02-22T16:13:32.785Z,0.30
2023-02-22T16:16:24.664Z,0.60
2023-02-22T16:18:52.711Z,0.77
2023-02-22T16:21:22.336Z,0.70
2023-02-22T16:24:10.276Z,0.63
2023-02-22T16:26:42.067Z,0.60
2023-02-22T16:29:11.177Z,0.63
2023-02-22T16:31:40.692Z,0.60
2023-02-22T16:34:10.144Z,1.30
2023-02-22T16:36:45.671Z,0.68
2023-02-22T16:39:22.092Z,0.47
2023-02-22T16:41:51.805Z,0.47
2023-02-22T16:44:18.974Z,0.55
2023-02-22T16:46:46.117Z,1.70
2023-02-22T16:49:15.237Z,1.27
2023-02-22T16:51:46.833Z,0.80
2023-02-22T16:54:21.700Z,0.75
2023-02-22T16:56:49.239Z,1.90
2023-02-22T16:59:17.746Z,0.85
2023-02-22T17:01:45.177Z,0.77
2023-02-22T17:04:19.056Z,0.82
2023-02-22T17:06:46.678Z,1.15
2023-02-22T17:09:16.358Z,1.15
2023-02-22T17:11:44.826Z,0.82
2023-02-22T17:14:18.153Z,1.07
2023-02-22T17:16:47.297Z,0.73
2023-02-22T17:19:21.255Z,1.25
2023-02-22T17:21:49.468Z,1.40
2023-02-22T17:24:24.966Z,1.15
2023-02-22T17:26:53.278Z,1.90
2023-02-22T17:29:22.317Z,1.92
2023-02-22T17:34:18.324Z,1.80
2023-02-22T17:36:47.222Z,2.20
2023-02-22T17:39:14.997Z,2.60
2023-02-22T17:41:42.757Z,2.33
2023-02-22T17:44:10.086Z,2.30
2023-02-22T17:46:41.103Z,3.00
2023-02-22T17:49:08.790Z,1.05
2023-02-22T17:51:38.845Z,2.65
2023-02-22T17:54:10.060Z,2.70
2023-02-22T17:56:38.895Z,1.95
2023-02-22T17:59:09.509Z,3.15
2023-02-22T18:01:41.639Z,1.40
2023-02-22T18:04:09.612Z,2.03
2023-02-22T18:06:38.256Z,1.85
2023-02-22T18:09:11.129Z,3.00
2023-02-22T18:11:39.558Z,1.08
2023-02-22T18:14:10.258Z,1.75
2023-02-22T18:16:39.142Z,2.08
2023-02-22T18:19:07.229Z,3.08
2023-02-22T18:21:35.349Z,2.40
2023-02-22T18:24:05.368Z,2.30
2023-02-22T18:26:33.450Z,2.13
2023-02-22T18:29:01.842Z,2.70
2023-02-22T18:31:29.984Z,1.98
2023-02-22T18:33:58.616Z,2.37
2023-02-22T18:36:27.245Z,1.88
2023-02-22T18:38:55.979Z,1.70
2023-02-22T18:41:26.702Z,3.15
2023-02-22T18:43:55.955Z,3.50
2023-02-22T18:46:25.107Z,3.58
2023-02-22T18:48:57.801Z,2.25
2023-02-22T18:51:26.835Z,3.50
2023-02-22T18:56:30.430Z,1.42
2023-02-22T18:59:03.034Z,1.15
2023-02-22T19:01:32.094Z,2.53
2023-02-22T19:08:59.288Z,2.50
2023-02-22T19:11:26.872Z,1.35
2023-02-22T19:13:57.939Z,2.50
2023-02-22T19:16:27.775Z,2.60
2023-02-22T19:19:04.106Z,2.10
2023-02-22T19:21:34.073Z,0.98
2023-02-22T19:24:03.063Z,1.58
2023-02-22T19:26:32.792Z,1.77
2023-02-22T19:29:06.151Z,3.95
2023-02-22T19:31:34.911Z,1.73
2023-02-22T19:34:04.291Z,1.98
2023-02-22T19:36:33.399Z,2.55
2023-02-22T19:39:04.939Z,2.17
2023-02-22T19:41:33.190Z,1.90
2023-02-22T19:44:03.067Z,2.40
2023-02-22T19:46:32.919Z,2.97
2023-02-22T19:49:02.557Z,3.35
2023-02-22T19:51:45.572Z,2.17
2023-02-22T19:54:22.098Z,1.92
2023-02-22T19:56:56.951Z,2.42
2023-02-22T19:59:24.802Z,2.45
2023-02-22T20:01:55.212Z,1.43
2023-02-22T20:04:23.816Z,1.23
2023-02-22T20:06:58.278Z,1.42
2023-02-22T20:09:43.958Z,1.85
2023-02-22T20:12:11.706Z,2.42
2023-02-22T20:14:42.284Z,3.50
2023-02-22T20:17:11.037Z,3.63
2023-02-22T20:19:43.844Z,1.45
2023-02-22T20:22:13.008Z,1.95
2023-02-22T20:24:42.956Z,2.08
2023-02-22T20:27:11.377Z,2.60
2023-02-22T20:29:42.926Z,0.35
2023-02-22T20:32:13.282Z,2.05
2023-02-22T20:34:46.597Z,1.10
2023-02-22T20:37:15.397Z,1.15
2023-02-22T20:39:45.185Z,2.42
2023-02-22T20:42:16.122Z,2.15
2023-02-22T20:44:45.568Z,3.33
2023-02-22T20:47:13.726Z,2.45
2023-02-22T20:49:41.764Z,1.93
2023-02-22T20:52:10.987Z,0.27
2023-02-22T20:57:08.241Z,1.25
2023-02-22T20:59:36.496Z,1.83
2023-02-22T21:02:04.814Z,2.45
2023-02-22T21:04:33.878Z,2.70
2023-02-22T21:07:04.622Z,2.00
2023-02-22T21:09:34.064Z,1.80
2023-02-22T21:12:01.964Z,0.88
2023-02-22T21:14:34.154Z,1.45
2023-02-22T21:17:04.724Z,1.40
2023-02-22T21:19:34.637Z,1.10
2023-02-22T21:22:09.025Z,2.15
2023-02-22T21:24:37.835Z,2.35
2023-02-22T21:27:07.390Z,2.63
2023-02-22T21:29:35.912Z,2.28
2023-02-22T21:32:04.033Z,1.48
2023-02-22T21:34:32.384Z,1.10
2023-02-22T21:37:00.489Z,1.67
2023-02-22T21:39:32.416Z,2.87
2023-02-22T21:42:00.712Z,1.52
2023-02-22T21:44:29.168Z,2.50
2023-02-22T21:46:57.265Z,1.05
2023-02-22T21:49:25.408Z,1.75
2023-02-22T21:51:53.019Z,2.15
2023-02-22T21:54:20.382Z,0.95
2023-02-22T21:56:48.124Z,1.67
2023-02-22T21:59:21.024Z,1.25
2023-02-22T22:01:51.014Z,1.83
2023-02-22T22:04:20.307Z,1.90
2023-02-22T22:06:49.698Z,1.20
2023-02-22T22:09:20.446Z,2.33
2023-02-22T22:11:49.726Z,1.17
2023-02-22T22:14:18.917Z,1.60
2023-02-22T22:16:51.326Z,0.85
2023-02-22T22:19:18.752Z,1.50
2023-02-22T22:21:53.340Z,1.02
2023-02-22T22:24:22.810Z,2.58
2023-02-22T22:26:54.746Z,0.75
2023-02-22T22:29:28.655Z,3.10
2023-02-22T22:31:56.733Z,0.52
2023-02-22T22:34:24.612Z,0.93
2023-02-22T22:36:51.716Z,0.57
2023-02-22T22:39:21.298Z,1.83
2023-02-22T22:41:49.037Z,1.27
2023-02-22T22:44:22.359Z,0.88
2023-02-22T22:46:53.642Z,1.42
2023-02-22T22:49:23.440Z,1.80
2023-02-22T22:51:51.357Z,2.65
2023-02-22T22:54:18.754Z,1.35
2023-02-22T22:56:46.672Z,1.35
2023-02-22T22:59:14.168Z,1.02
2023-02-22T23:01:44.836Z,1.60
2023-02-22T23:04:16.586Z,0.95
2023-02-22T23:06:47.813Z,2.25
2023-02-22T23:09:18.830Z,1.42
2023-02-22T23:12:15.296Z,0.73
2023-02-22T23:14:44.489Z,1.02
2023-02-22T23:17:31.214Z,0.77
2023-02-22T23:19:58.979Z,1.58
2023-02-22T23:22:28.005Z,1.98
2023-02-22T23:27:23.831Z,1.60
2023-02-22T23:29:50.909Z,0.93
2023-02-22T23:32:18.349Z,2.15
2023-02-22T23:34:49.773Z,2.60
2023-02-22T23:37:20.780Z,1.10
2023-02-22T23:39:51.092Z,2.42
2023-02-22T23:42:21.122Z,1.27
2023-02-22T23:44:48.750Z,2.33
2023-02-22T23:47:16.251Z,0.77
2023-02-22T23:49:45.569Z,1.40
2023-02-22T23:52:13.554Z,1.30
2023-02-22T23:54:44.119Z,1.92
2023-02-22T23:57:11.508Z,3.03
2023-02-22T23:59:40.633Z,1.55
